createdAt,value
2019-04-27T00:01:45.343Z,11.30
2019-04-27T00:04:11.762Z,11.30
2019-04-27T00:06:17.713Z,11.30
2019-04-27T00:08:38.781Z,11.30
2019-04-27T00:10:49.121Z,11.20
2019-04-27T00:12:57.326Z,11.20
2019-04-27T00:15:03.352Z,11.20
2019-04-27T00:17:44.939Z,11.20
2019-04-27T00:19:53.731Z,11.20
2019-04-27T00:22:23.083Z,11.20
2019-04-27T00:24:28.676Z,11.20
2019-04-27T00:26:34.178Z,11.10
2019-04-27T00:28:39.680Z,11.10
2019-04-27T00:30:44.762Z,11.10
2019-04-27T00:32:50.325Z,11.10
2019-04-27T00:34:55.527Z,11.10
2019-04-27T00:37:18.911Z,11.10
2019-04-27T00:39:33.032Z,11.10
2019-04-27T00:41:38.172Z,11.00
2019-04-27T00:43:44.533Z,11.00
2019-04-27T00:45:49.631Z,11.00
2019-04-27T00:47:59.438Z,11.00
2019-04-27T00:50:03.432Z,10.90
2019-04-27T00:52:08.470Z,10.90
2019-04-27T00:54:13.963Z,10.90
2019-04-27T00:56:43.215Z,10.90
2019-04-27T00:59:07.818Z,10.90
2019-04-27T01:01:23.438Z,10.80
2019-04-27T01:03:40.187Z,10.80
2019-04-27T01:05:48.409Z,10.80
2019-04-27T01:07:57.767Z,10.70
2019-04-27T01:10:05.342Z,10.70
2019-04-27T01:12:11.529Z,10.70
2019-04-27T01:14:16.548Z,10.60
2019-04-27T01:16:24.010Z,10.60
2019-04-27T01:18:28.789Z,10.60
2019-04-27T01:20:33.878Z,10.60
2019-04-27T01:22:39.228Z,10.50
2019-04-27T01:24:45.030Z,10.50
2019-04-27T01:27:09.822Z,10.50
2019-04-27T01:29:19.205Z,10.50
2019-04-27T01:31:24.606Z,10.40
2019-04-27T01:33:30.379Z,10.40
2019-04-27T01:35:35.816Z,10.30
2019-04-27T01:37:40.845Z,10.30
2019-04-27T01:39:46.136Z,10.30
2019-04-27T01:41:51.581Z,10.30
2019-04-27T01:43:56.664Z,10.20
2019-04-27T01:46:02.100Z,10.20
2019-04-27T01:48:20.911Z,10.20
2019-04-27T01:50:15.151Z,10.20
2019-04-27T01:52:20.306Z,10.20
2019-04-27T01:54:29.035Z,10.10
2019-04-27T01:56:34.501Z,10.10
2019-04-27T01:58:39.604Z,10.10
2019-04-27T02:01:18.711Z,10.10
2019-04-27T02:03:34.530Z,10.10
2019-04-27T02:05:55.621Z,10.00
2019-04-27T02:08:01.257Z,10.00
2019-04-27T02:10:09.803Z,10.00
2019-04-27T02:12:15.384Z,10.00
2019-04-27T02:14:20.814Z,10.00
2019-04-27T02:16:26.229Z,9.90
2019-04-27T02:18:37.540Z,9.90
2019-04-27T02:20:38.849Z,9.90
2019-04-27T02:22:44.302Z,9.90
2019-04-27T02:24:50.009Z,9.80
2019-04-27T02:26:55.205Z,9.90
2019-04-27T02:29:19.630Z,9.80
2019-04-27T02:31:50.047Z,9.80
2019-04-27T02:34:01.214Z,9.80
2019-04-27T02:36:06.378Z,9.80
2019-04-27T02:38:11.553Z,9.70
2019-04-27T02:40:55.033Z,9.70
2019-04-27T02:43:00.519Z,9.70
2019-04-27T02:45:06.138Z,9.70
2019-04-27T02:47:11.982Z,9.70
2019-04-27T02:49:20.019Z,9.60
2019-04-27T02:51:32.205Z,9.60
2019-04-27T02:53:57.087Z,9.60
2019-04-27T02:56:02.286Z,9.60
2019-04-27T02:58:12.288Z,9.50
2019-04-27T03:00:15.615Z,9.50
2019-04-27T03:02:32.793Z,9.50
2019-04-27T03:04:39.897Z,9.50
2019-04-27T03:06:45.207Z,9.50
2019-04-27T03:08:54.059Z,9.40
2019-04-27T03:10:57.798Z,9.40
2019-04-27T03:13:22.296Z,9.40
2019-04-27T03:15:40.290Z,9.30
2019-04-27T03:18:00.501Z,9.40
2019-04-27T03:20:31.356Z,9.30
2019-04-27T03:22:45.816Z,9.30
2019-04-27T03:25:30.402Z,9.30
2019-04-27T03:27:36.763Z,9.30
2019-04-27T03:29:42.630Z,9.20
2019-04-27T03:31:53.703Z,9.20
2019-04-27T03:33:58.883Z,9.20
2019-04-27T03:36:03.075Z,9.20
2019-04-27T03:38:10.421Z,9.20
2019-04-27T03:40:15.494Z,9.20
2019-04-27T03:42:21.609Z,9.10
2019-04-27T03:44:31.721Z,9.10
2019-04-27T03:46:33.738Z,9.10
2019-04-27T03:48:40.841Z,9.10
2019-04-27T03:50:55.330Z,9.10
2019-04-27T03:53:31.847Z,9.00
2019-04-27T03:55:42.233Z,9.10
2019-04-27T03:58:12.105Z,9.00
2019-04-27T04:00:20.202Z,9.00
2019-04-27T04:02:25.328Z,9.00
2019-04-27T04:04:32.798Z,9.00
2019-04-27T04:06:39.942Z,9.00
2019-04-27T04:08:44.841Z,9.00
2019-04-27T04:10:55.203Z,8.90
2019-04-27T04:13:14.636Z,8.90
2019-04-27T04:15:36.466Z,8.90
2019-04-27T04:17:41.747Z,8.90
2019-04-27T04:19:54.492Z,8.90
2019-04-27T04:21:53.775Z,8.90
2019-04-27T04:24:00.902Z,8.80
2019-04-27T04:26:06.877Z,8.80
2019-04-27T04:28:12.284Z,8.80
2019-04-27T04:30:19.963Z,8.80
2019-04-27T04:32:24.539Z,8.80
2019-04-27T04:34:29.995Z,8.80
2019-04-27T04:36:36.213Z,8.80
2019-04-27T04:38:41.376Z,8.80
2019-04-27T04:40:53.076Z,8.70
2019-04-27T04:43:05.065Z,8.70
2019-04-27T04:45:17.393Z,8.70
2019-04-27T04:47:54.571Z,8.70
2019-04-27T04:50:10.332Z,8.80
2019-04-27T04:52:09.455Z,8.80
2019-04-27T04:54:14.476Z,8.80
2019-04-27T04:56:19.630Z,8.80
2019-04-27T04:58:25.364Z,8.80
2019-04-27T05:00:30.937Z,8.80
2019-04-27T05:02:36.568Z,8.80
2019-04-27T05:04:41.953Z,8.80
2019-04-27T05:06:49.160Z,8.80
2019-04-27T05:08:54.319Z,8.90
2019-04-27T05:11:02.711Z,8.90
2019-04-27T05:13:09.384Z,8.90
2019-04-27T05:15:14.985Z,8.90
2019-04-27T05:17:20.170Z,8.90
2019-04-27T05:19:26.056Z,8.90
2019-04-27T05:21:33.503Z,9.00
2019-04-27T05:23:39.282Z,9.00
2019-04-27T05:25:44.535Z,9.10
2019-04-27T05:27:49.554Z,9.10
2019-04-27T05:29:54.691Z,9.10
2019-04-27T05:31:59.884Z,9.20
2019-04-27T05:34:06.871Z,9.20
2019-04-27T05:36:11.966Z,9.30
2019-04-27T05:38:19.329Z,9.30
2019-04-27T05:40:25.121Z,9.40
2019-04-27T05:42:30.518Z,9.40
2019-04-27T05:45:19.457Z,9.50
2019-04-27T05:47:29.259Z,9.50
2019-04-27T05:49:44.362Z,9.60
2019-04-27T05:51:50.114Z,9.70
2019-04-27T05:53:55.481Z,9.70
2019-04-27T05:56:01.350Z,9.80
2019-04-27T05:58:06.527Z,9.80
2019-04-27T06:00:13.298Z,9.90
2019-04-27T06:02:20.354Z,10.00
2019-04-27T06:04:25.441Z,10.10
2019-04-27T06:06:30.884Z,10.20
2019-04-27T06:08:36.219Z,10.20
2019-04-27T06:10:41.323Z,10.30
2019-04-27T06:12:48.598Z,10.40
2019-04-27T06:14:54.384Z,10.50
2019-04-27T06:16:59.764Z,10.50
2019-04-27T06:19:05.227Z,10.60
2019-04-27T06:21:10.333Z,10.70
2019-04-27T06:23:15.434Z,10.80
2019-04-27T06:25:21.832Z,10.90
2019-04-27T06:27:30.202Z,10.90
2019-04-27T06:29:33.790Z,11.00
2019-04-27T06:31:39.665Z,11.10
2019-04-27T06:33:45.199Z,11.20
2019-04-27T06:35:50.500Z,11.30
2019-04-27T06:37:56.090Z,11.40
2019-04-27T06:40:01.564Z,11.40
2019-04-27T06:42:16.630Z,11.50
2019-04-27T06:44:13.915Z,11.60
2019-04-27T06:46:20.047Z,11.70
2019-04-27T06:48:25.476Z,11.70
2019-04-27T06:50:30.750Z,11.80
2019-04-27T06:52:36.081Z,11.90
2019-04-27T06:54:41.335Z,12.00
2019-04-27T06:56:48.736Z,12.10
2019-04-27T06:58:54.616Z,12.20
2019-04-27T07:01:00.068Z,12.30
2019-04-27T07:03:05.523Z,12.30
2019-04-27T07:05:11.995Z,12.40
2019-04-27T07:07:17.037Z,12.50
2019-04-27T07:09:22.548Z,12.60
2019-04-27T07:11:29.254Z,12.60
2019-04-27T07:13:35.034Z,12.70
2019-04-27T07:15:40.511Z,12.70
2019-04-27T07:17:48.707Z,12.80
2019-04-27T07:19:54.093Z,12.90
2019-04-27T07:21:59.601Z,12.90
2019-04-27T07:24:05.128Z,13.00
2019-04-27T07:26:10.173Z,13.00
2019-04-27T07:28:15.637Z,13.10
2019-04-27T07:30:21.020Z,13.10
2019-04-27T07:32:26.109Z,13.10
2019-04-27T07:34:31.663Z,13.20
2019-04-27T07:36:37.027Z,13.20
2019-04-27T07:38:42.980Z,13.20
2019-04-27T07:40:48.960Z,13.30
2019-04-27T07:42:59.594Z,13.30
2019-04-27T07:45:11.274Z,13.30
2019-04-27T07:47:21.837Z,13.30
2019-04-27T07:49:29.057Z,13.40
2019-04-27T07:51:34.595Z,13.40
2019-04-27T07:53:39.568Z,13.40
2019-04-27T07:55:45.167Z,13.40
2019-04-27T07:57:50.302Z,13.50
2019-04-27T07:59:55.469Z,13.50
2019-04-27T08:02:00.728Z,13.50
2019-04-27T08:04:05.906Z,13.50
2019-04-27T08:06:11.734Z,13.50
2019-04-27T08:08:16.893Z,13.50
2019-04-27T08:10:22.724Z,13.50
2019-04-27T08:12:28.873Z,13.60
2019-04-27T08:14:34.113Z,13.60
2019-04-27T08:16:39.284Z,13.60
2019-04-27T08:18:44.704Z,13.60
2019-04-27T08:20:49.898Z,13.60
2019-04-27T08:22:55.077Z,13.70
2019-04-27T08:25:00.182Z,13.70
2019-04-27T08:27:24.546Z,13.70
2019-04-27T08:29:44.057Z,13.70
2019-04-27T08:31:53.368Z,13.70
2019-04-27T08:34:00.066Z,13.70
2019-04-27T08:36:05.435Z,13.70
2019-04-27T08:38:11.199Z,13.80
2019-04-27T08:40:17.080Z,13.80
2019-04-27T08:42:22.268Z,13.80
2019-04-27T08:44:27.401Z,13.80
2019-04-27T08:46:33.341Z,13.90
2019-04-27T08:48:39.279Z,13.80
2019-04-27T08:50:44.468Z,13.90
2019-04-27T08:52:50.455Z,13.90
2019-04-27T08:54:55.761Z,13.90
2019-04-27T08:57:01.754Z,14.00
2019-04-27T08:59:07.050Z,14.00
2019-04-27T09:01:12.065Z,14.00
2019-04-27T09:03:16.991Z,14.00
2019-04-27T09:05:26.031Z,14.10
2019-04-27T09:07:42.573Z,14.00
2019-04-27T09:09:49.813Z,14.10
2019-04-27T09:12:22.743Z,14.10
2019-04-27T09:14:41.922Z,14.10
2019-04-27T09:17:06.263Z,14.10
2019-04-27T09:19:19.558Z,14.20
2019-04-27T09:21:25.374Z,14.20
2019-04-27T09:23:30.857Z,14.20
2019-04-27T09:25:36.569Z,14.20
2019-04-27T09:27:42.027Z,14.30
2019-04-27T09:29:47.045Z,14.30
2019-04-27T09:31:52.073Z,14.30
2019-04-27T09:33:57.714Z,14.30
2019-04-27T09:36:03.307Z,14.40
2019-04-27T09:38:08.563Z,14.40
2019-04-27T09:40:13.752Z,14.40
2019-04-27T09:42:18.902Z,14.50
2019-04-27T09:44:24.112Z,14.50
2019-04-27T09:46:29.377Z,14.50
2019-04-27T09:48:36.090Z,14.50
2019-04-27T09:50:41.358Z,14.60
2019-04-27T09:52:46.444Z,14.60
2019-04-27T09:54:51.768Z,14.60
2019-04-27T09:56:57.201Z,14.60
2019-04-27T09:59:03.217Z,14.70
2019-04-27T10:01:08.905Z,14.70
2019-04-27T10:03:14.745Z,14.70
2019-04-27T10:05:20.256Z,14.70
2019-04-27T10:07:26.885Z,14.80
2019-04-27T10:09:31.875Z,14.80
2019-04-27T10:11:37.103Z,14.80
2019-04-27T10:13:42.474Z,14.90
2019-04-27T10:15:48.763Z,14.90
2019-04-27T10:17:57.334Z,14.90
2019-04-27T10:20:01.522Z,14.90
2019-04-27T10:22:06.770Z,14.90
2019-04-27T10:24:11.857Z,15.00
2019-04-27T10:26:17.360Z,15.00
2019-04-27T10:28:22.855Z,15.00
2019-04-27T10:30:28.872Z,15.00
2019-04-27T10:32:35.872Z,15.00
2019-04-27T10:34:40.966Z,15.00
2019-04-27T10:36:46.628Z,15.00
2019-04-27T10:38:52.080Z,15.10
2019-04-27T10:40:57.311Z,15.10
2019-04-27T10:43:03.323Z,15.10
2019-04-27T10:45:09.786Z,15.10
2019-04-27T10:47:15.916Z,15.20
2019-04-27T10:49:21.536Z,15.20
2019-04-27T10:51:27.109Z,15.30
2019-04-27T10:53:32.553Z,15.30
2019-04-27T10:55:38.219Z,15.30
2019-04-27T10:57:43.281Z,15.40
2019-04-27T10:59:48.455Z,15.30
2019-04-27T11:01:55.932Z,15.30
2019-04-27T11:04:19.185Z,15.30
2019-04-27T11:06:31.750Z,15.30
2019-04-27T11:08:36.832Z,15.30
2019-04-27T11:10:42.015Z,15.20
2019-04-27T11:12:47.215Z,15.20
2019-04-27T11:14:52.428Z,15.10
2019-04-27T11:16:57.620Z,15.10
2019-04-27T11:19:03.060Z,15.10
2019-04-27T11:21:08.171Z,15.00
2019-04-27T11:23:13.371Z,15.00
2019-04-27T11:25:18.938Z,15.00
2019-04-27T11:27:24.283Z,14.90
2019-04-27T11:29:29.483Z,14.90
2019-04-27T11:31:36.312Z,14.90
2019-04-27T11:33:41.794Z,14.90
2019-04-27T11:35:56.100Z,14.90
2019-04-27T11:38:01.628Z,14.80
2019-04-27T11:40:08.413Z,14.80
2019-04-27T11:42:13.968Z,14.80
2019-04-27T11:44:19.161Z,14.80
2019-04-27T11:46:24.564Z,14.80
2019-04-27T11:48:29.751Z,14.80
2019-04-27T11:50:35.773Z,14.80
2019-04-27T11:52:41.887Z,14.80
2019-04-27T11:54:47.077Z,14.80
2019-04-27T11:56:52.221Z,14.80
2019-04-27T11:58:57.646Z,14.80
2019-04-27T12:01:02.859Z,14.70
2019-04-27T12:03:08.056Z,14.80
2019-04-27T12:05:13.632Z,14.70
2019-04-27T12:07:18.788Z,14.70
2019-04-27T12:09:23.898Z,14.70
2019-04-27T12:11:29.278Z,14.70
2019-04-27T12:13:35.928Z,14.70
2019-04-27T12:15:41.254Z,14.70
2019-04-27T12:17:46.348Z,14.70
2019-04-27T12:19:51.530Z,14.70
2019-04-27T12:21:56.682Z,14.60
2019-04-27T12:24:01.767Z,14.60
2019-04-27T12:26:08.935Z,14.60
2019-04-27T12:28:31.421Z,14.60
2019-04-27T12:30:44.179Z,14.60
2019-04-27T12:32:49.570Z,14.50
2019-04-27T12:34:56.550Z,14.50
2019-04-27T12:37:01.934Z,14.50
2019-04-27T12:39:15.529Z,14.40
2019-04-27T12:41:21.065Z,14.40
2019-04-27T12:43:26.240Z,14.30
2019-04-27T12:45:31.491Z,14.30
2019-04-27T12:47:36.718Z,14.30
2019-04-27T12:49:42.258Z,14.20
2019-04-27T12:51:47.357Z,14.20
2019-04-27T12:54:11.527Z,14.20
2019-04-27T12:56:31.550Z,14.20
2019-04-27T12:58:49.963Z,14.10
2019-04-27T13:00:55.746Z,14.10
2019-04-27T13:03:00.841Z,14.10
2019-04-27T13:05:06.394Z,14.10
2019-04-27T13:07:11.535Z,14.00
2019-04-27T13:09:17.305Z,14.00
2019-04-27T13:11:23.011Z,14.00
2019-04-27T13:13:28.686Z,14.00
2019-04-27T13:15:35.644Z,14.00
2019-04-27T13:17:40.977Z,14.00
2019-04-27T13:19:46.130Z,14.00
2019-04-27T13:21:51.967Z,14.00
2019-04-27T13:24:03.993Z,14.00
2019-04-27T13:26:06.214Z,14.00
2019-04-27T13:28:11.563Z,14.00
2019-04-27T13:30:18.811Z,14.10
2019-04-27T13:32:26.486Z,14.00
2019-04-27T13:34:34.432Z,14.00
2019-04-27T13:36:39.912Z,14.00
2019-04-27T13:38:46.662Z,14.10
2019-04-27T13:41:11.728Z,14.10
2019-04-27T13:43:26.316Z,14.20
2019-04-27T13:45:51.674Z,14.30
2019-04-27T13:48:26.102Z,14.30
2019-04-27T13:50:42.830Z,14.30
2019-04-27T13:52:47.957Z,14.40
2019-04-27T13:54:53.116Z,14.50
2019-04-27T13:56:58.561Z,14.50
2019-04-27T13:59:07.262Z,14.50
2019-04-27T14:01:10.920Z,14.60
2019-04-27T14:03:16.810Z,14.60
2019-04-27T14:05:22.027Z,14.60
2019-04-27T14:07:27.081Z,14.60
2019-04-27T14:09:32.284Z,14.70
2019-04-27T14:11:39.354Z,14.70
2019-04-27T14:13:44.795Z,14.70
2019-04-27T14:15:50.232Z,14.70
2019-04-27T14:17:55.292Z,14.70
2019-04-27T14:20:00.608Z,14.80
2019-04-27T14:22:09.265Z,14.80
2019-04-27T14:24:14.301Z,14.80
2019-04-27T14:26:20.473Z,14.80
2019-04-27T14:28:26.352Z,14.80
2019-04-27T14:30:31.906Z,14.80
2019-04-27T14:32:38.776Z,14.90
2019-04-27T14:34:44.274Z,14.90
2019-04-27T14:36:49.596Z,15.00
2019-04-27T14:38:54.964Z,15.10
2019-04-27T14:41:00.545Z,15.20
2019-04-27T14:43:05.828Z,15.30
2019-04-27T14:45:11.375Z,15.30
2019-04-27T14:47:18.680Z,15.40
2019-04-27T14:49:24.154Z,15.60
2019-04-27T14:51:29.345Z,15.60
2019-04-27T14:53:34.706Z,15.80
2019-04-27T14:55:40.018Z,15.80
2019-04-27T14:57:45.301Z,15.80
2019-04-27T14:59:50.680Z,15.90
2019-04-27T15:01:56.068Z,15.90
2019-04-27T15:04:01.213Z,16.00
2019-04-27T15:06:06.309Z,16.00
2019-04-27T15:08:11.971Z,16.10
2019-04-27T15:10:18.097Z,16.20
2019-04-27T15:12:30.415Z,16.20
2019-04-27T15:14:31.383Z,16.20
2019-04-27T15:16:37.869Z,16.20
2019-04-27T15:18:50.019Z,16.20
2019-04-27T15:20:58.533Z,16.20
2019-04-27T15:23:02.370Z,16.20
2019-04-27T15:25:13.730Z,16.20
2019-04-27T15:27:17.422Z,16.20
2019-04-27T15:29:25.265Z,16.30
2019-04-27T15:31:41.865Z,16.40
2019-04-27T15:34:05.228Z,16.60
2019-04-27T15:36:14.569Z,16.60
2019-04-27T15:38:23.602Z,16.80
2019-04-27T15:41:02.854Z,16.90
2019-04-27T15:43:38.526Z,16.90
2019-04-27T15:45:43.432Z,17.00
2019-04-27T15:47:54.265Z,17.10
2019-04-27T15:49:55.743Z,17.10
2019-04-27T15:52:00.773Z,17.10
2019-04-27T15:54:05.913Z,17.10
2019-04-27T15:56:11.104Z,17.10
2019-04-27T15:58:20.828Z,17.10
2019-04-27T16:00:28.854Z,17.10
2019-04-27T16:02:34.086Z,17.10
2019-04-27T16:04:44.304Z,17.10
2019-04-27T16:06:47.682Z,17.00
2019-04-27T16:08:53.819Z,17.00
2019-04-27T16:10:58.962Z,16.90
2019-04-27T16:13:06.855Z,16.90
2019-04-27T16:15:13.516Z,16.80
2019-04-27T16:17:19.173Z,16.70
2019-04-27T16:19:24.280Z,16.60
2019-04-27T16:21:31.528Z,16.60
2019-04-27T16:23:40.261Z,16.50
2019-04-27T16:25:48.472Z,16.40
2019-04-27T16:27:50.199Z,16.20
2019-04-27T16:29:55.465Z,16.20
2019-04-27T16:32:02.820Z,16.00
2019-04-27T16:34:08.396Z,15.90
2019-04-27T16:36:14.012Z,15.90
2019-04-27T16:38:48.129Z,15.80
2019-04-27T16:40:54.727Z,15.70
2019-04-27T16:43:00.160Z,15.60
2019-04-27T16:45:05.989Z,15.60
2019-04-27T16:47:12.496Z,15.50
2019-04-27T16:49:18.777Z,15.40
2019-04-27T16:51:23.974Z,15.40
2019-04-27T16:53:30.117Z,15.30
2019-04-27T16:55:36.356Z,15.30
2019-04-27T16:57:41.531Z,15.30
2019-04-27T16:59:54.821Z,15.20
2019-04-27T17:01:53.858Z,15.20
2019-04-27T17:03:59.535Z,15.20
2019-04-27T17:06:07.882Z,15.10
2019-04-27T17:08:21.462Z,15.10
2019-04-27T17:10:25.576Z,15.10
2019-04-27T17:12:29.897Z,15.00
2019-04-27T17:15:05.823Z,15.00
2019-04-27T17:17:24.507Z,14.90
2019-04-27T17:19:35.921Z,14.90
2019-04-27T17:21:41.185Z,14.90
2019-04-27T17:23:48.158Z,14.80
2019-04-27T17:25:57.212Z,14.80
2019-04-27T17:28:05.316Z,14.70
2019-04-27T17:30:12.594Z,14.70
2019-04-27T17:32:48.643Z,14.70
2019-04-27T17:34:55.616Z,14.70
2019-04-27T17:36:59.691Z,14.60
2019-04-27T17:39:08.454Z,14.50
2019-04-27T17:41:13.721Z,14.50
2019-04-27T17:43:19.345Z,14.50
2019-04-27T17:45:24.674Z,14.50
2019-04-27T17:47:30.129Z,14.50
2019-04-27T17:49:35.309Z,14.40
2019-04-27T17:51:44.253Z,14.40
2019-04-27T17:53:49.694Z,14.40
2019-04-27T17:55:55.071Z,14.40
2019-04-27T17:58:05.200Z,14.40
2019-04-27T18:00:09.749Z,14.40
2019-04-27T18:02:15.447Z,14.40
2019-04-27T18:04:21.022Z,14.40
2019-04-27T18:06:29.576Z,14.40
2019-04-27T18:08:33.212Z,14.30
2019-04-27T18:10:38.689Z,14.30
2019-04-27T18:12:48.493Z,14.30
2019-04-27T18:14:52.084Z,14.30
2019-04-27T18:16:58.350Z,14.30
2019-04-27T18:19:18.607Z,14.30
2019-04-27T18:21:29.794Z,14.30
2019-04-27T18:23:36.730Z,14.30
2019-04-27T18:25:48.140Z,14.30
2019-04-27T18:28:15.092Z,14.30
2019-04-27T18:30:20.511Z,14.30
2019-04-27T18:32:27.745Z,14.20
2019-04-27T18:34:32.806Z,14.20
2019-04-27T18:36:43.728Z,14.20
2019-04-27T18:38:45.073Z,14.20
2019-04-27T18:40:50.724Z,14.10
2019-04-27T18:42:56.005Z,14.10
2019-04-27T18:45:06.844Z,14.10
2019-04-27T18:47:08.461Z,14.10
2019-04-27T18:49:38.749Z,14.00
2019-04-27T18:52:12.271Z,14.00
2019-04-27T18:54:18.383Z,14.00
2019-04-27T18:56:24.220Z,14.00
2019-04-27T18:58:29.638Z,13.90
2019-04-27T19:00:35.536Z,13.90
2019-04-27T19:02:44.168Z,13.90
2019-04-27T19:04:50.171Z,13.90
2019-04-27T19:06:55.766Z,13.80
2019-04-27T19:09:01.344Z,13.80
2019-04-27T19:11:09.070Z,13.70
2019-04-27T19:13:15.563Z,13.70
2019-04-27T19:15:20.986Z,13.60
2019-04-27T19:17:28.232Z,13.50
2019-04-27T19:19:33.715Z,13.50
2019-04-27T19:21:39.278Z,13.50
2019-04-27T19:23:45.226Z,13.40
2019-04-27T19:25:58.543Z,13.40
2019-04-27T19:28:14.577Z,13.30
2019-04-27T19:30:28.031Z,13.30
2019-04-27T19:32:33.349Z,13.30
2019-04-27T19:34:39.420Z,13.20
2019-04-27T19:36:45.854Z,13.20
2019-04-27T19:38:52.824Z,13.20
2019-04-27T19:40:58.467Z,13.10
2019-04-27T19:43:05.124Z,13.10
2019-04-27T19:45:10.739Z,13.10
2019-04-27T19:47:15.837Z,13.00
2019-04-27T19:49:21.245Z,13.00
2019-04-27T19:51:28.239Z,13.00
2019-04-27T19:53:33.979Z,12.90
2019-04-27T19:55:40.612Z,12.90
2019-04-27T19:57:46.471Z,12.90
2019-04-27T19:59:55.647Z,12.80
2019-04-27T20:02:03.360Z,12.80
2019-04-27T20:04:15.864Z,12.80
2019-04-27T20:06:20.943Z,12.80
2019-04-27T20:08:29.755Z,12.80
2019-04-27T20:10:34.937Z,12.70
2019-04-27T20:12:41.102Z,12.70
2019-04-27T20:14:58.911Z,12.70
2019-04-27T20:17:11.071Z,12.70
2019-04-27T20:19:18.564Z,12.60
2019-04-27T20:21:24.470Z,12.60
2019-04-27T20:23:32.093Z,12.60
2019-04-27T20:25:41.265Z,12.60
2019-04-27T20:27:49.978Z,12.60
2019-04-27T20:30:00.695Z,12.60
2019-04-27T20:32:08.654Z,12.50
2019-04-27T20:34:15.288Z,12.50
2019-04-27T20:36:21.404Z,12.50
2019-04-27T20:38:26.550Z,12.50
2019-04-27T20:40:32.656Z,12.50
2019-04-27T20:42:38.727Z,12.40
2019-04-27T20:44:45.111Z,12.40
2019-04-27T20:46:52.975Z,12.50
2019-04-27T20:49:00.898Z,12.40
2019-04-27T20:51:06.331Z,12.40
2019-04-27T20:53:15.455Z,12.40
2019-04-27T20:55:21.521Z,12.40
2019-04-27T20:57:26.851Z,12.30
2019-04-27T20:59:32.045Z,12.30
2019-04-27T21:01:37.345Z,12.40
2019-04-27T21:03:51.255Z,12.30
2019-04-27T21:06:15.351Z,12.30
2019-04-27T21:08:21.733Z,12.30
2019-04-27T21:10:26.914Z,12.30
2019-04-27T21:12:31.945Z,12.20
2019-04-27T21:14:37.610Z,12.20
2019-04-27T21:16:43.155Z,12.20
2019-04-27T21:18:48.548Z,12.20
2019-04-27T21:20:53.801Z,12.20
2019-04-27T21:22:59.264Z,12.20
2019-04-27T21:25:05.304Z,12.10
2019-04-27T21:27:12.877Z,12.20
2019-04-27T21:29:17.984Z,12.10
2019-04-27T21:31:23.745Z,12.10
2019-04-27T21:33:28.884Z,12.10
2019-04-27T21:35:35.179Z,12.10
2019-04-27T21:37:40.901Z,12.10
2019-04-27T21:39:46.312Z,12.10
2019-04-27T21:41:51.858Z,12.00
2019-04-27T21:43:57.326Z,12.00
2019-04-27T21:46:02.375Z,12.00
2019-04-27T21:48:07.464Z,12.00
2019-04-27T21:50:13.634Z,12.10
2019-04-27T21:52:27.451Z,12.00
2019-04-27T21:54:33.293Z,12.00
2019-04-27T21:56:38.270Z,12.00
2019-04-27T21:58:43.450Z,11.90
2019-04-27T22:01:09.259Z,11.90
2019-04-27T22:03:15.454Z,11.90
2019-04-27T22:05:21.096Z,11.90
2019-04-27T22:07:26.238Z,11.90
2019-04-27T22:09:31.703Z,11.90
2019-04-27T22:11:36.890Z,11.90
2019-04-27T22:13:42.294Z,11.90
2019-04-27T22:15:47.379Z,11.90
2019-04-27T22:17:52.894Z,11.90
2019-04-27T22:19:59.317Z,11.90
2019-04-27T22:22:06.423Z,11.90
2019-04-27T22:24:42.777Z,11.80
2019-04-27T22:26:46.702Z,11.80
2019-04-27T22:28:52.257Z,11.80
2019-04-27T22:30:57.389Z,11.80
2019-04-27T22:33:02.495Z,11.80
2019-04-27T22:35:08.182Z,11.80
2019-04-27T22:37:13.710Z,11.80
2019-04-27T22:39:24.598Z,11.80
2019-04-27T22:41:43.860Z,11.80
2019-04-27T22:44:01.363Z,11.80
2019-04-27T22:46:08.922Z,11.80
2019-04-27T22:48:14.360Z,11.80
2019-04-27T22:50:21.008Z,11.80
2019-04-27T22:52:26.219Z,11.80
2019-04-27T22:54:32.005Z,11.70
2019-04-27T22:56:38.677Z,11.80
2019-04-27T22:58:59.938Z,11.70
2019-04-27T23:01:04.451Z,11.70
2019-04-27T23:03:11.974Z,11.70
2019-04-27T23:05:17.061Z,11.70
2019-04-27T23:07:22.254Z,11.70
2019-04-27T23:09:27.404Z,11.70
2019-04-27T23:11:34.366Z,11.70
2019-04-27T23:13:39.488Z,11.70
2019-04-27T23:15:47.238Z,11.70
2019-04-27T23:17:56.181Z,11.70
2019-04-27T23:20:01.739Z,11.60
2019-04-27T23:22:06.825Z,11.60
2019-04-27T23:24:11.972Z,11.60
2019-04-27T23:26:17.048Z,11.60
2019-04-27T23:28:22.445Z,11.60
2019-04-27T23:30:38.156Z,11.60
2019-04-27T23:32:46.273Z,11.60
2019-04-27T23:34:51.532Z,11.60
2019-04-27T23:36:56.636Z,11.60
2019-04-27T23:39:01.989Z,11.60
2019-04-27T23:41:07.147Z,11.60
2019-04-27T23:43:12.245Z,11.60
2019-04-27T23:45:18.108Z,11.60
2019-04-27T23:47:24.405Z,11.60
2019-04-27T23:49:30.853Z,11.60
2019-04-27T23:51:45.727Z,11.50
2019-04-27T23:53:51.668Z,11.50
2019-04-27T23:55:56.919Z,11.50
2019-04-27T23:58:02.490Z,11.50
